Csl Argosy — C6UZ9 — position and weather

sailwx.info

Track history (hours):
 
Tides and Currents Weather Stations Pressure Air Temp Water Temp Dewpoint Dewpoint Depression Visibility Wind Speed Wind Dir Waves Ship Positions

Csl Argosy

Last reported at 2015-Feb-23 15:05 UTC. Time now 2015-Mar-03 08:54 UTC.
Position N 54°17' E 004°39'.

Length 244 m; draft 7.9 m.

Type: Cargo ship. MMSI: 308299000.

Date/timePositionNaut miles runAvg speedWind from/ knotsBaromVisibWave heightAir tempDewpointWater temp
2015-Feb-23 15:05N 54°17' E 004°39'8 8.8
2015-Feb-23 14:12N 54°09' E 004°40'5 8.1
2015-Feb-23 13:32N 54°04' E 004°42'8 7.9
2015-Feb-23 12:29N 53°56' E 004°38'143 8.0
2015-Feb-22 18:32N 51°46' E 002°59'8 8.1
2015-Feb-22 17:33N 51°46' E 003°12'9 9.0
2015-Feb-22 16:33N 51°39' E 003°20'1110.9
2015-Feb-22 15:33N 51°29' E 003°29'7 6.5
2015-Feb-22 14:34N 51°26' E 003°39'7 7.3
2015-Feb-22 13:33N 51°21' E 003°47'7 7.4
2015-Feb-22 12:33N 51°25' E 003°58'7 7.1
2015-Feb-22 11:33N 51°22' E 004°08'8 8.3
2015-Feb-22 10:34N 51°17' E 004°19'2 2.2
2015-Feb-22 09:34N 51°16' E 004°17'1 1.3
2015-Feb-22 08:33N 51°16' E 004°14'1 0.6
2015-Feb-22 07:32N 51°16' E 004°14'0 0.0
2015-Feb-22 06:34N 51°16' E 004°14'0 0.0
2015-Feb-22 05:34N 51°16' E 004°14'0 0.0
2015-Feb-22 04:33N 51°16' E 004°14'0 0.0
2015-Feb-22 03:34N 51°16' E 004°14'0 0.1
2015-Feb-22 02:32N 51°16' E 004°14'2 1.6
2015-Feb-22 01:30N 51°17' E 004°14'0 0.0
2015-Feb-22 00:33N 51°17' E 004°14'0 0.0
2015-Feb-21 23:33N 51°17' E 004°14'0 0.0
2015-Feb-21 22:33N 51°17' E 004°14'0 0.0
2015-Feb-21 21:33N 51°17' E 004°14'0 0.0
2015-Feb-21 20:33N 51°17' E 004°14'0 0.0
2015-Feb-21 19:33N 51°17' E 004°14'0 0.0
2015-Feb-21 18:30N 51°17' E 004°14'0 0.0
2015-Feb-21 17:33N 51°17' E 004°14'0 0.0
2015-Feb-21 16:33N 51°17' E 004°14'0 0.0
2015-Feb-21 15:33N 51°17' E 004°14'0 0.0
2015-Feb-21 14:33N 51°17' E 004°14'0 0.0
2015-Feb-21 13:33N 51°17' E 004°14'0 0.0
2015-Feb-21 12:33N 51°17' E 004°14'0 0.0
2015-Feb-21 11:30N 51°17' E 004°14'0 0.0
2015-Feb-21 10:33N 51°17' E 004°14'0 0.0
2015-Feb-21 09:33N 51°17' E 004°14'0 0.0
2015-Feb-21 08:33N 51°17' E 004°14'0 0.0
2015-Feb-21 07:33N 51°17' E 004°14'0 0.0
2015-Feb-21 06:30N 51°17' E 004°14'0 0.0
2015-Feb-21 05:33N 51°17' E 004°14'0 0.0
2015-Feb-21 04:33N 51°17' E 004°14'0 0.0
2015-Feb-21 03:33N 51°17' E 004°14'0 0.0
2015-Feb-21 02:33N 51°17' E 004°14'0 0.0
2015-Feb-21 01:33N 51°17' E 004°14'0 0.0
2015-Feb-21 00:33N 51°17' E 004°14'0 0.0
2015-Feb-20 23:33N 51°17' E 004°14'0 0.0
2015-Feb-20 22:33N 51°17' E 004°14'0 0.0
2015-Feb-20 21:33N 51°17' E 004°14'0 0.0
2015-Feb-20 20:33N 51°17' E 004°14'0 0.0
2015-Feb-20 19:33N 51°17' E 004°14'0 0.0
2015-Feb-20 18:33N 51°17' E 004°14'0 0.0
2015-Feb-20 17:33N 51°17' E 004°14'0 0.0
2015-Feb-20 16:33N 51°17' E 004°14'0 0.0
2015-Feb-20 15:33N 51°17' E 004°14'0 0.0
2015-Feb-20 14:33N 51°17' E 004°14'0 0.0
2015-Feb-20 13:33N 51°17' E 004°14'0 0.0
2015-Feb-20 12:33N 51°17' E 004°14'0 0.0
2015-Feb-20 11:33N 51°17' E 004°14'0 0.0
2015-Feb-20 10:33N 51°17' E 004°14'0 0.0
2015-Feb-20 09:33N 51°17' E 004°14'0 0.0
2015-Feb-20 08:34N 51°17' E 004°14'1 0.6
2015-Feb-20 07:33N 51°17' E 004°14'2 2.1
2015-Feb-20 06:34N 51°16' E 004°17'0 0.4
2015-Feb-20 05:34N 51°16' E 004°17'3 2.7
2015-Feb-20 04:34N 51°18' E 004°16'6 6.3
2015-Feb-20 03:34N 51°24' E 004°11'6 6.5
2015-Feb-20 02:34N 51°26' E 004°01'9 9.5
2015-Feb-20 01:34N 51°21' E 003°48'9 8.8
2015-Feb-20 00:33N 51°26' E 003°36'1111.2
2015-Feb-19 23:32N 51°24' E 003°18'9 9.1
2015-Feb-19 22:33N 51°24' E 003°03'8 8.1
2015-Feb-19 21:34N 51°25' E 002°50'6 6.0
2015-Feb-19 20:33N 51°24' E 002°41'4 3.9
2015-Feb-19 19:30N 51°26' E 002°35'0 0.3
2015-Feb-19 18:33N 51°26' E 002°35'0 0.1
2015-Feb-19 17:27N 51°26' E 002°35'0 0.0
2015-Feb-19 16:33N 51°26' E 002°35'0 0.0
2015-Feb-19 15:33N 51°26' E 002°35'1 0.8
2015-Feb-19 14:33N 51°27' E 002°37'3 3.3
2015-Feb-19 13:32N 51°23' E 002°39'8 8.5
2015-Feb-19 12:33N 51°21' E 002°26'1110.9
2015-Feb-19 11:33N 51°15' E 002°11'1110.8
2015-Feb-19 10:33N 51°10' E 001°56'10 9.9
2015-Feb-19 09:33N 51°04' E 001°43'8 8.3
2015-Feb-19 08:33N 50°58' E 001°34'7 6.7
2015-Feb-19 07:33N 50°52' E 001°28'7 6.7
2015-Feb-19 06:27N 50°45' E 001°25'6 7.1
2015-Feb-19 05:32N 50°40' E 001°20'  
2015-Feb-16 18:09N 54°07' W 005°08'610.2
2015-Feb-16 17:33N 54°13' W 005°06'1010.3
2015-Feb-16 16:33N 54°23' W 005°07'1110.5
2015-Feb-16 15:33N 54°33' W 005°09'9 9.0
2015-Feb-16 14:33N 54°42' W 005°14'9 9.3
2015-Feb-16 13:33N 54°49' W 005°24'9 8.8
2015-Feb-16 12:33N 54°56' W 005°33'9 8.2
2015-Feb-16 11:30N 55°03' W 005°43'6 6.8
2015-Feb-16 10:33N 55°08' W 005°50'7 6.6
2015-Feb-16 09:33N 55°13' W 005°57'8 7.9
2015-Feb-16 08:33N 55°20' W 006°05'8 8.2
2015-Feb-16 07:33N 55°23' W 006°18'10 9.5
2015-Feb-16 06:33N 55°29' W 006°31'1010.1
2015-Feb-16 05:33N 55°35' W 006°45'8 7.9
2015-Feb-16 04:33N 55°42' W 006°51'6 6.3
2015-Feb-16 03:33N 55°48' W 006°46'6 6.1
2015-Feb-16 02:33N 55°53' W 006°40'24 5.8
2015-Feb-15 22:27N 56°10' W 006°11'7 7.4
2015-Feb-15 21:31N 56°14' W 006°00'7 7.6
2015-Feb-15 20:33N 56°18' W 005°49'16 7.2
2015-Feb-15 18:19N 56°31' W 005°34'1 0.0
2015-Feb-14 17:27N 56°32' W 005°34'15 7.3
2015-Feb-14 15:25N 56°19' W 005°46'12 9.0
2015-Feb-14 14:06N 56°13' W 006°04'5 9.5
2015-Feb-14 13:33N 56°10' W 006°12'23 9.3
2015-Feb-14 11:05N 55°56' W 006°45'4 7.4
2015-Feb-14 10:33N 55°52' W 006°46'9 9.3
2015-Feb-14 09:33N 55°44' W 006°37'9 9.5
2015-Feb-14 08:33N 55°35' W 006°32'10 9.9
2015-Feb-14 07:33N 55°28' W 006°20'9 9.0
2015-Feb-14 06:33N 55°25' W 006°05'8 7.8
2015-Feb-14 05:33N 55°19' W 005°56'8 8.2
2015-Feb-14 04:33N 55°12' W 005°48'8 8.3
2015-Feb-14 03:34N 55°05' W 005°40'8 8.0
2015-Feb-14 02:33N 54°58' W 005°33'8 8.3
2015-Feb-14 01:33N 54°51' W 005°25'9 8.5
2015-Feb-14 00:33N 54°44' W 005°17'9 8.9
2015-Feb-13 23:33N 54°37' W 005°09'9 8.6
2015-Feb-13 22:33N 54°28' W 005°05'9 8.7
2015-Feb-13 21:33N 54°20' W 005°06'12 9.0
2015-Feb-13 20:16N 54°08' W 005°07'  
Track history (hours):
 
Tides and Currents Weather Stations Pressure Air Temp Water Temp Dewpoint Dewpoint Depression Visibility Wind Speed Wind Dir Waves Ship Positions

Csl Argosy

Last reported at 2015-Feb-23 15:05 UTC. Time now 2015-Mar-03 08:54 UTC.
Position N 54°17' E 004°39'.

Length 244 m; draft 7.9 m.

Type: Cargo ship. MMSI: 308299000.

Date/timePositionNaut miles runAvg speedWind from/ knotsBaromVisibWave heightAir tempDewpointWater temp
2015-Feb-23 15:05N 54°17' E 004°39'8 8.8
2015-Feb-23 14:12N 54°09' E 004°40'5 8.1
2015-Feb-23 13:32N 54°04' E 004°42'8 7.9
2015-Feb-23 12:29N 53°56' E 004°38'143 8.0
2015-Feb-22 18:32N 51°46' E 002°59'8 8.1
2015-Feb-22 17:33N 51°46' E 003°12'9 9.0
2015-Feb-22 16:33N 51°39' E 003°20'1110.9
2015-Feb-22 15:33N 51°29' E 003°29'7 6.5
2015-Feb-22 14:34N 51°26' E 003°39'7 7.3
2015-Feb-22 13:33N 51°21' E 003°47'7 7.4
2015-Feb-22 12:33N 51°25' E 003°58'7 7.1
2015-Feb-22 11:33N 51°22' E 004°08'8 8.3
2015-Feb-22 10:34N 51°17' E 004°19'2 2.2
2015-Feb-22 09:34N 51°16' E 004°17'1 1.3
2015-Feb-22 08:33N 51°16' E 004°14'1 0.6
2015-Feb-22 07:32N 51°16' E 004°14'0 0.0
2015-Feb-22 06:34N 51°16' E 004°14'0 0.0
2015-Feb-22 05:34N 51°16' E 004°14'0 0.0
2015-Feb-22 04:33N 51°16' E 004°14'0 0.0
2015-Feb-22 03:34N 51°16' E 004°14'0 0.1
2015-Feb-22 02:32N 51°16' E 004°14'2 1.6
2015-Feb-22 01:30N 51°17' E 004°14'0 0.0
2015-Feb-22 00:33N 51°17' E 004°14'0 0.0
2015-Feb-21 23:33N 51°17' E 004°14'0 0.0
2015-Feb-21 22:33N 51°17' E 004°14'0 0.0
2015-Feb-21 21:33N 51°17' E 004°14'0 0.0
2015-Feb-21 20:33N 51°17' E 004°14'0 0.0
2015-Feb-21 19:33N 51°17' E 004°14'0 0.0
2015-Feb-21 18:30N 51°17' E 004°14'0 0.0
2015-Feb-21 17:33N 51°17' E 004°14'0 0.0
2015-Feb-21 16:33N 51°17' E 004°14'0 0.0
2015-Feb-21 15:33N 51°17' E 004°14'0 0.0
2015-Feb-21 14:33N 51°17' E 004°14'0 0.0
2015-Feb-21 13:33N 51°17' E 004°14'0 0.0
2015-Feb-21 12:33N 51°17' E 004°14'0 0.0
2015-Feb-21 11:30N 51°17' E 004°14'0 0.0
2015-Feb-21 10:33N 51°17' E 004°14'0 0.0
2015-Feb-21 09:33N 51°17' E 004°14'0 0.0
2015-Feb-21 08:33N 51°17' E 004°14'0 0.0
2015-Feb-21 07:33N 51°17' E 004°14'0 0.0
2015-Feb-21 06:30N 51°17' E 004°14'0 0.0
2015-Feb-21 05:33N 51°17' E 004°14'0 0.0
2015-Feb-21 04:33N 51°17' E 004°14'0 0.0
2015-Feb-21 03:33N 51°17' E 004°14'0 0.0
2015-Feb-21 02:33N 51°17' E 004°14'0 0.0
2015-Feb-21 01:33N 51°17' E 004°14'0 0.0
2015-Feb-21 00:33N 51°17' E 004°14'0 0.0
2015-Feb-20 23:33N 51°17' E 004°14'0 0.0
2015-Feb-20 22:33N 51°17' E 004°14'0 0.0
2015-Feb-20 21:33N 51°17' E 004°14'0 0.0
2015-Feb-20 20:33N 51°17' E 004°14'0 0.0
2015-Feb-20 19:33N 51°17' E 004°14'0 0.0
2015-Feb-20 18:33N 51°17' E 004°14'0 0.0
2015-Feb-20 17:33N 51°17' E 004°14'0 0.0
2015-Feb-20 16:33N 51°17' E 004°14'0 0.0
2015-Feb-20 15:33N 51°17' E 004°14'0 0.0
2015-Feb-20 14:33N 51°17' E 004°14'0 0.0
2015-Feb-20 13:33N 51°17' E 004°14'0 0.0
2015-Feb-20 12:33N 51°17' E 004°14'0 0.0
2015-Feb-20 11:33N 51°17' E 004°14'0 0.0
2015-Feb-20 10:33N 51°17' E 004°14'0 0.0
2015-Feb-20 09:33N 51°17' E 004°14'0 0.0
2015-Feb-20 08:34N 51°17' E 004°14'1 0.6
2015-Feb-20 07:33N 51°17' E 004°14'2 2.1
2015-Feb-20 06:34N 51°16' E 004°17'0 0.4
2015-Feb-20 05:34N 51°16' E 004°17'3 2.7
2015-Feb-20 04:34N 51°18' E 004°16'6 6.3
2015-Feb-20 03:34N 51°24' E 004°11'6 6.5
2015-Feb-20 02:34N 51°26' E 004°01'9 9.5
2015-Feb-20 01:34N 51°21' E 003°48'9 8.8
2015-Feb-20 00:33N 51°26' E 003°36'1111.2
2015-Feb-19 23:32N 51°24' E 003°18'9 9.1
2015-Feb-19 22:33N 51°24' E 003°03'8 8.1
2015-Feb-19 21:34N 51°25' E 002°50'6 6.0
2015-Feb-19 20:33N 51°24' E 002°41'4 3.9
2015-Feb-19 19:30N 51°26' E 002°35'0 0.3
2015-Feb-19 18:33N 51°26' E 002°35'0 0.1
2015-Feb-19 17:27N 51°26' E 002°35'0 0.0
2015-Feb-19 16:33N 51°26' E 002°35'0 0.0
2015-Feb-19 15:33N 51°26' E 002°35'1 0.8
2015-Feb-19 14:33N 51°27' E 002°37'3 3.3
2015-Feb-19 13:32N 51°23' E 002°39'8 8.5
2015-Feb-19 12:33N 51°21' E 002°26'1110.9
2015-Feb-19 11:33N 51°15' E 002°11'1110.8
2015-Feb-19 10:33N 51°10' E 001°56'10 9.9
2015-Feb-19 09:33N 51°04' E 001°43'8 8.3
2015-Feb-19 08:33N 50°58' E 001°34'7 6.7
2015-Feb-19 07:33N 50°52' E 001°28'7 6.7
2015-Feb-19 06:27N 50°45' E 001°25'6 7.1
2015-Feb-19 05:32N 50°40' E 001°20'  
2015-Feb-16 18:09N 54°07' W 005°08'610.2
2015-Feb-16 17:33N 54°13' W 005°06'1010.3
2015-Feb-16 16:33N 54°23' W 005°07'1110.5
2015-Feb-16 15:33N 54°33' W 005°09'9 9.0
2015-Feb-16 14:33N 54°42' W 005°14'9 9.3
2015-Feb-16 13:33N 54°49' W 005°24'9 8.8
2015-Feb-16 12:33N 54°56' W 005°33'9 8.2
2015-Feb-16 11:30N 55°03' W 005°43'6 6.8
2015-Feb-16 10:33N 55°08' W 005°50'7 6.6
2015-Feb-16 09:33N 55°13' W 005°57'8 7.9
2015-Feb-16 08:33N 55°20' W 006°05'8 8.2
2015-Feb-16 07:33N 55°23' W 006°18'10 9.5
2015-Feb-16 06:33N 55°29' W 006°31'1010.1
2015-Feb-16 05:33N 55°35' W 006°45'8 7.9
2015-Feb-16 04:33N 55°42' W 006°51'6 6.3
2015-Feb-16 03:33N 55°48' W 006°46'6 6.1
2015-Feb-16 02:33N 55°53' W 006°40'24 5.8
2015-Feb-15 22:27N 56°10' W 006°11'7 7.4
2015-Feb-15 21:31N 56°14' W 006°00'7 7.6
2015-Feb-15 20:33N 56°18' W 005°49'16 7.2
2015-Feb-15 18:19N 56°31' W 005°34'1 0.0
2015-Feb-14 17:27N 56°32' W 005°34'15 7.3
2015-Feb-14 15:25N 56°19' W 005°46'12 9.0
2015-Feb-14 14:06N 56°13' W 006°04'5 9.5
2015-Feb-14 13:33N 56°10' W 006°12'23 9.3
2015-Feb-14 11:05N 55°56' W 006°45'4 7.4
2015-Feb-14 10:33N 55°52' W 006°46'9 9.3
2015-Feb-14 09:33N 55°44' W 006°37'9 9.5
2015-Feb-14 08:33N 55°35' W 006°32'10 9.9
2015-Feb-14 07:33N 55°28' W 006°20'9 9.0
2015-Feb-14 06:33N 55°25' W 006°05'8 7.8
2015-Feb-14 05:33N 55°19' W 005°56'8 8.2
2015-Feb-14 04:33N 55°12' W 005°48'8 8.3
2015-Feb-14 03:34N 55°05' W 005°40'8 8.0
2015-Feb-14 02:33N 54°58' W 005°33'8 8.3
2015-Feb-14 01:33N 54°51' W 005°25'9 8.5
2015-Feb-14 00:33N 54°44' W 005°17'9 8.9
2015-Feb-13 23:33N 54°37' W 005°09'9 8.6
2015-Feb-13 22:33N 54°28' W 005°05'9 8.7
2015-Feb-13 21:33N 54°20' W 005°06'12 9.0
2015-Feb-13 20:16N 54°08' W 005°07'  

Dump ship's entire track history